Time;durP1;ratioP1;P1;durP2;ratioP2;P2;SDS_P1;SDS_P2;PMS_P1;PMS_P2;Temp;Humidity;BMP_temperature;BMP_pressure;BME280_temperature;BME280_humidity;BME280_pressure;Samples;Min_cycle;Max_cycle;Signal;HPM_P1;HPM_P2
2021/05/10 00:02:00;;;;;;;4.93;4.27;;;11.50;80.60;;;;;;5004220;28;20230;-81
2021/05/10 00:04:27;;;;;;;4.43;4.03;;;11.50;80.50;;;;;;5011589;28;20208;-83
2021/05/10 00:06:55;;;;;;;5.57;4.60;;;11.60;80.60;;;;;;5005287;28;20208;-82
2021/05/10 00:09:23;;;;;;;4.70;4.30;;;11.60;80.50;;;;;;5005934;28;20210;-83
2021/05/10 00:11:50;;;;;;;7.50;4.90;;;11.60;80.70;;;;;;5010341;28;20764;-81
2021/05/10 00:14:27;;;;;;;6.93;4.70;;;11.60;80.70;;;;;;5005024;28;20601;-80
2021/05/10 00:16:55;;;;;;;5.93;4.90;;;11.50;80.70;;;;;;5009099;28;20644;-81
2021/05/10 00:19:22;;;;;;;5.13;4.57;;;11.60;80.90;;;;;;5013313;28;20203;-81
2021/05/10 00:21:50;;;;;;;5.23;4.10;;;11.50;80.90;;;;;;5008265;28;20300;-84
2021/05/10 00:24:17;;;;;;;5.20;4.07;;;11.50;80.70;;;;;;5009314;28;20220;-80
2021/05/10 00:26:45;;;;;;;5.00;4.50;;;11.40;80.80;;;;;;5010268;28;20203;-83
2021/05/10 00:29:17;;;;;;;6.23;4.50;;;11.40;81.00;;;;;;5011617;28;20234;-82
2021/05/10 00:31:46;;;;;;;7.83;4.23;;;11.40;81.10;;;;;;4994160;28;20267;-81
2021/05/10 00:34:15;;;;;;;4.90;4.40;;;11.40;81.10;;;;;;5019973;28;20196;-82
2021/05/10 00:36:43;;;;;;;5.73;4.27;;;11.40;81.10;;;;;;5010569;28;20195;-83
2021/05/10 00:39:12;;;;;;;4.97;4.40;;;11.30;81.30;;;;;;4991447;28;20799;-84
2021/05/10 00:41:40;;;;;;;6.10;4.50;;;11.30;81.40;;;;;;5007936;28;20589;-82
2021/05/10 00:44:08;;;;;;;4.40;4.00;;;11.20;81.60;;;;;;5006694;28;20556;-83
2021/05/10 00:46:38;;;;;;;4.87;4.20;;;11.10;81.50;;;;;;5004602;28;20263;-82
2021/05/10 00:49:07;;;;;;;4.70;4.20;;;11.10;82.00;;;;;;5004067;28;20240;-81
2021/05/10 00:51:35;;;;;;;4.90;4.40;;;11.10;81.90;;;;;;5014579;28;20643;-82
2021/05/10 00:54:05;;;;;;;5.53;4.27;;;11.10;82.00;;;;;;5011685;28;20243;-82
2021/05/10 00:56:33;;;;;;;5.20;4.70;;;11.00;82.20;;;;;;5016643;28;20208;-84
2021/05/10 00:59:00;;;;;;;4.90;4.40;;;11.00;82.40;;;;;;5003345;28;20610;-86
2021/05/10 01:01:28;;;;;;;5.53;4.57;;;11.00;82.40;;;;;;5016777;28;20218;-82
2021/05/10 01:03:56;;;;;;;4.63;4.23;;;11.00;82.40;;;;;;5010292;28;20201;-85
2021/05/10 01:06:24;;;;;;;5.70;3.93;;;10.90;82.40;;;;;;5004129;28;20561;-82
2021/05/10 01:08:52;;;;;;;5.13;4.63;;;10.80;82.60;;;;;;5001705;28;20211;-82
2021/05/10 01:11:19;;;;;;;4.70;4.20;;;10.70;83.10;;;;;;5000871;28;20375;-82
2021/05/10 01:13:48;;;;;;;5.60;5.00;;;10.70;83.30;;;;;;4993605;28;20244;-83
2021/05/10 01:16:15;;;;;;;4.97;4.47;;;10.40;83.60;;;;;;5009167;28;20635;-82
2021/05/10 01:18:45;;;;;;;6.73;4.93;;;10.40;84.20;;;;;;4995957;28;20203;-83
2021/05/10 01:21:13;;;;;;;5.10;4.53;;;10.30;84.30;;;;;;5014007;28;20203;-82
2021/05/10 01:23:42;;;;;;;5.10;4.70;;;10.30;84.20;;;;;;5006074;28;20228;-81
2021/05/10 01:26:12;;;;;;;5.17;4.57;;;10.20;84.40;;;;;;5010591;28;20196;-84
2021/05/10 01:28:41;;;;;;;6.20;4.93;;;10.00;84.80;;;;;;5023133;28;20200;-86
2021/05/10 01:31:09;;;;;;;6.57;4.90;;;9.90;85.50;;;;;;5028616;28;20206;-83
2021/05/10 01:33:37;;;;;;;6.03;5.00;;;9.90;85.30;;;;;;5017924;28;20208;-81
2021/05/10 01:36:07;;;;;;;6.97;4.60;;;9.80;85.60;;;;;;4987744;28;20222;-81
2021/05/10 01:38:36;;;;;;;5.30;4.40;;;9.70;85.70;;;;;;5012704;28;20199;-84
2021/05/10 01:41:05;;;;;;;5.53;4.63;;;9.80;85.40;;;;;;5019249;28;20470;-86
2021/05/10 01:43:33;;;;;;;5.00;4.50;;;9.90;85.40;;;;;;5007369;28;21708;-84
2021/05/10 01:46:00;;;;;;;6.07;4.80;;;9.80;85.20;;;;;;5018832;28;20849;-84
2021/05/10 01:48:28;;;;;;;5.37;4.87;;;9.60;86.10;;;;;;5020179;28;20207;-82
2021/05/10 01:50:55;;;;;;;6.00;5.37;;;9.60;86.00;;;;;;5000024;28;20206;-82
2021/05/10 01:53:23;;;;;;;6.00;5.50;;;9.40;86.00;;;;;;4999596;28;20569;-86
2021/05/10 01:55:50;;;;;;;8.10;6.17;;;9.20;86.70;;;;;;5000297;28;20208;-82
2021/05/10 01:58:19;;;;;;;6.47;5.97;;;9.00;86.70;;;;;;4998440;28;20206;-85
2021/05/10 02:00:49;;;;;;;6.70;6.10;;;8.80;86.90;;;;;;5006924;28;20290;-85
2021/05/10 02:03:18;;;;;;;8.93;6.43;;;8.60;87.40;;;;;;5002797;28;20253;-83
2021/05/10 02:05:47;;;;;;;6.80;5.87;;;8.50;88.70;;;;;;5003600;28;20207;-84
2021/05/10 02:08:16;;;;;;;7.10;6.13;;;8.30;88.00;;;;;;5004805;28;20203;-81
2021/05/10 02:10:45;;;;;;;7.17;6.20;;;8.30;90.10;;;;;;5009016;28;20194;-81
2021/05/10 02:13:15;;;;;;;8.50;6.87;;;8.30;90.70;;;;;;5008960;28;20428;-82
2021/05/10 02:15:45;;;;;;;6.30;5.70;;;8.10;90.10;;;;;;5021257;28;20206;-82
2021/05/10 02:18:15;;;;;;;8.57;6.47;;;8.00;90.00;;;;;;5017366;28;20222;-85
2021/05/10 02:20:43;;;;;;;6.90;6.17;;;7.90;90.10;;;;;;5023531;28;20213;-83
2021/05/10 02:23:13;;;;;;;6.67;5.97;;;7.90;91.80;;;;;;5018887;28;20316;-84
2021/05/10 02:25:42;;;;;;;6.93;6.23;;;7.80;91.40;;;;;;5021152;28;20216;-85
2021/05/10 02:28:12;;;;;;;9.00;6.53;;;7.70;91.50;;;;;;5016300;28;20221;-81
2021/05/10 02:30:41;;;;;;;7.40;6.70;;;7.70;91.70;;;;;;5008237;28;20762;-81
2021/05/10 02:33:11;;;;;;;10.50;8.60;;;7.70;92.00;;;;;;5008919;28;20212;-81
2021/05/10 02:35:39;;;;;;;8.70;7.83;;;7.60;92.20;;;;;;5010562;28;20213;-82
2021/05/10 02:38:07;;;;;;;8.37;7.20;;;7.60;92.20;;;;;;5010148;28;20466;-84
2021/05/10 02:40:36;;;;;;;9.13;6.70;;;7.50;92.90;;;;;;5028897;28;20204;-84
2021/05/10 02:43:04;;;;;;;9.80;7.67;;;7.70;93.70;;;;;;5020706;28;20232;-84
2021/05/10 02:45:31;;;;;;;7.53;6.37;;;7.70;92.70;;;;;;5024445;28;20201;-84
2021/05/10 02:47:59;;;;;;;7.37;6.23;;;7.80;92.30;;;;;;5028584;28;20206;-87
2021/05/10 02:50:28;;;;;;;6.80;6.20;;;7.80;92.30;;;;;;5013864;28;20280;-82
2021/05/10 02:52:56;;;;;;;7.03;6.30;;;7.80;92.10;;;;;;5012981;28;20200;-82
2021/05/10 02:55:24;;;;;;;8.20;6.37;;;7.80;92.70;;;;;;5008989;28;20214;-81
2021/05/10 02:57:53;;;;;;;7.83;5.80;;;7.70;92.40;;;;;;5010016;28;20208;-80
2021/05/10 03:00:23;;;;;;;6.90;6.20;;;7.70;92.30;;;;;;5021849;28;20205;-83
2021/05/10 03:02:52;;;;;;;8.30;5.97;;;7.70;92.80;;;;;;5021977;28;20229;-82
2021/05/10 03:05:21;;;;;;;7.93;5.73;;;7.80;93.30;;;;;;5022391;28;20216;-81
2021/05/10 03:07:49;;;;;;;8.40;6.97;;;8.00;92.40;;;;;;5011854;28;20203;-83
2021/05/10 03:10:19;;;;;;;9.33;7.77;;;8.30;91.40;;;;;;5016009;28;20256;-81
2021/05/10 03:12:47;;;;;;;7.67;6.90;;;8.40;90.80;;;;;;5016168;28;20210;-83
2021/05/10 03:15:17;;;;;;;6.37;4.70;;;8.70;90.10;;;;;;5018996;28;20205;-80
2021/05/10 03:17:47;;;;;;;6.17;4.77;;;8.80;88.50;;;;;;5021431;28;20194;-80
2021/05/10 03:20:17;;;;;;;8.33;4.50;;;9.10;87.90;;;;;;5010460;28;20238;-82
2021/05/10 03:22:45;;;;;;;5.50;4.87;;;9.20;87.30;;;;;;5023363;28;20307;-82
2021/05/10 03:25:14;;;;;;;8.23;4.90;;;9.40;87.00;;;;;;5006450;28;20272;-83
2021/05/10 03:27:41;;;;;;;5.67;4.60;;;9.50;86.30;;;;;;5021011;28;20516;-84
2021/05/10 03:30:12;;;;;;;7.00;4.87;;;9.70;86.00;;;;;;5029593;28;20192;-87
2021/05/10 03:32:41;;;;;;;7.30;4.40;;;9.70;85.60;;;;;;5021563;28;20377;-84
2021/05/10 03:35:11;;;;;;;6.60;4.63;;;9.80;85.60;;;;;;5027169;28;20195;-84
2021/05/10 03:37:38;;;;;;;7.03;5.10;;;9.90;85.50;;;;;;5024902;28;20254;-83
2021/05/10 03:40:08;;;;;;;5.30;4.50;;;9.90;85.20;;;;;;5028042;28;20210;-85
2021/05/10 03:42:36;;;;;;;5.20;4.70;;;10.00;85.10;;;;;;5023845;28;20219;-85
2021/05/10 03:45:05;;;;;;;7.90;4.80;;;10.10;84.90;;;;;;5029509;28;20213;-81
2021/05/10 03:47:39;;;;;;;5.03;4.50;;;10.10;85.00;;;;;;5026311;28;20457;-84
2021/05/10 03:50:12;;;;;;;5.87;4.87;;;10.20;84.80;;;;;;5008305;28;20784;-84
2021/05/10 03:52:39;;;;;;;5.97;4.33;;;10.30;84.70;;;;;;5026767;28;20204;-83
2021/05/10 03:55:08;;;;;;;5.20;4.33;;;10.30;84.60;;;;;;5025516;28;21310;-80
2021/05/10 03:57:37;;;;;;;4.67;4.13;;;10.40;84.50;;;;;;5012592;28;20818;-82
2021/05/10 04:00:05;;;;;;;7.53;4.60;;;10.50;84.30;;;;;;5022883;28;20221;-81
2021/05/10 04:02:33;;;;;;;6.40;4.30;;;10.60;84.30;;;;;;5022315;28;20234;-83
2021/05/10 04:05:09;;;;;;;6.63;4.73;;;10.60;84.00;;;;;;5012537;28;20200;-81
2021/05/10 04:07:45;;;;;;;5.37;4.47;;;10.70;84.00;;;;;;5011804;28;20203;-85
2021/05/10 04:15:45;;;;;;;6.97;4.50;;;10.80;83.70;;;;;;5012605;28;20202;-83
2021/05/10 04:18:13;;;;;;;5.23;3.93;;;10.90;83.60;;;;;;5023104;28;20195;-87
2021/05/10 04:20:41;;;;;;;5.37;4.67;;;10.90;83.40;;;;;;5030081;28;20335;-84
2021/05/10 04:23:09;;;;;;;4.80;4.40;;;11.10;83.50;;;;;;5028536;28;20313;-82
2021/05/10 04:25:39;;;;;;;6.47;4.10;;;11.20;83.10;;;;;;5030747;28;20195;-83
2021/05/10 04:28:07;;;;;;;4.63;4.23;;;11.30;83.10;;;;;;5024708;28;20390;-82
2021/05/10 04:30:34;;;;;;;5.10;4.30;;;11.40;83.00;;;;;;5029221;28;20210;-84
2021/05/10 04:33:03;;;;;;;5.13;3.97;;;11.50;83.10;;;;;;5029275;28;20220;-85
2021/05/10 04:35:32;;;;;;;6.70;4.40;;;11.50;83.00;;;;;;5016197;28;20232;-82
2021/05/10 04:38:01;;;;;;;4.73;3.97;;;11.60;83.00;;;;;;5021179;28;20221;-81
2021/05/10 04:40:29;;;;;;;7.97;4.47;;;11.70;82.40;;;;;;5016517;28;20208;-83
2021/05/10 04:42:56;;;;;;;5.33;4.27;;;11.80;82.50;;;;;;5017507;28;20788;-82
2021/05/10 04:45:24;;;;;;;4.60;4.07;;;11.90;82.40;;;;;;5018760;28;20273;-83
2021/05/10 04:47:52;;;;;;;4.43;4.03;;;12.00;82.30;;;;;;5010398;28;20216;-83
2021/05/10 04:50:20;;;;;;;6.53;4.40;;;12.30;82.20;;;;;;4982055;28;20219;-83
2021/05/10 04:52:49;;;;;;;4.60;4.20;;;12.40;82.10;;;;;;5008882;28;20210;-84
2021/05/10 04:55:17;;;;;;;6.87;4.43;;;12.70;82.20;;;;;;5011879;28;20274;-84
2021/05/10 04:57:45;;;;;;;5.57;4.00;;;12.70;82.00;;;;;;4997658;28;20212;-83
2021/05/10 05:00:14;;;;;;;4.43;4.03;;;12.90;81.60;;;;;;5005832;28;20293;-83
2021/05/10 05:02:44;;;;;;;5.20;4.33;;;12.90;81.60;;;;;;4984145;28;20369;-83
2021/05/10 05:05:12;;;;;;;5.10;3.90;;;13.20;81.60;;;;;;5009448;28;20207;-84
2021/05/10 05:07:40;;;;;;;5.03;4.20;;;13.20;81.40;;;;;;4995743;28;20207;-83
2021/05/10 05:10:09;;;;;;;4.63;3.97;;;13.20;81.10;;;;;;5004410;28;20215;-84
2021/05/10 05:12:38;;;;;;;5.73;3.83;;;13.30;81.30;;;;;;4999173;28;20219;-85
2021/05/10 05:15:07;;;;;;;6.03;4.07;;;13.30;80.90;;;;;;4998889;28;20293;-82
2021/05/10 05:17:35;;;;;;;4.93;4.33;;;13.40;81.20;;;;;;5006173;28;20631;-83
2021/05/10 05:20:05;;;;;;;6.27;3.93;;;13.40;81.00;;;;;;5002887;28;20223;-82
2021/05/10 05:22:33;;;;;;;4.33;3.93;;;13.60;80.90;;;;;;5013394;28;20258;-81
2021/05/10 05:25:01;;;;;;;3.77;3.47;;;13.70;80.70;;;;;;5005067;28;20207;-82
2021/05/10 05:27:29;;;;;;;4.30;3.90;;;13.70;80.50;;;;;;4979406;28;20586;-85
2021/05/10 05:29:56;;;;;;;3.90;3.60;;;13.80;80.60;;;;;;5003940;28;21443;-83
2021/05/10 05:32:25;;;;;;;5.10;3.63;;;13.90;80.50;;;;;;5016530;28;20642;-84
2021/05/10 05:34:54;;;;;;;5.40;4.00;;;14.00;80.40;;;;;;4990353;28;20469;-84
2021/05/10 05:37:22;;;;;;;4.13;3.67;;;14.20;80.30;;;;;;4996608;28;20411;-82
2021/05/10 05:39:50;;;;;;;5.83;4.10;;;14.30;80.10;;;;;;4996274;28;20235;-84
2021/05/10 05:42:19;;;;;;;7.20;3.77;;;14.40;79.90;;;;;;5001787;28;20526;-82
2021/05/10 05:44:49;;;;;;;4.30;3.90;;;14.50;79.80;;;;;;5008653;28;20188;-84
2021/05/10 05:47:24;;;;;;;6.20;3.80;;;14.50;79.50;;;;;;5009971;28;20237;-84
2021/05/10 05:49:53;;;;;;;5.13;3.87;;;14.60;79.60;;;;;;5012472;28;20199;-85
2021/05/10 05:52:22;;;;;;;4.87;3.70;;;14.70;79.40;;;;;;4994728;28;20251;-83
2021/05/10 05:54:53;;;;;;;4.87;3.43;;;14.80;79.90;;;;;;5013736;28;20192;-82
2021/05/10 05:57:21;;;;;;;4.63;3.83;;;14.90;79.20;;;;;;5017224;28;20195;-81
2021/05/10 05:59:49;;;;;;;5.30;3.93;;;15.00;79.10;;;;;;5010586;28;20214;-82
2021/05/10 06:02:17;;;;;;;7.87;3.60;;;15.10;79.10;;;;;;4998578;28;20204;-80
2021/05/10 06:04:44;;;;;;;4.33;3.77;;;15.30;79.20;;;;;;4993117;28;20275;-83
2021/05/10 06:07:12;;;;;;;3.57;3.27;;;15.40;78.70;;;;;;4995954;28;20199;-84
2021/05/10 06:09:41;;;;;;;6.20;3.70;;;15.50;78.40;;;;;;4990602;28;20211;-81
2021/05/10 06:12:09;;;;;;;4.37;3.60;;;15.50;78.70;;;;;;4993478;28;20524;-80
2021/05/10 06:14:39;;;;;;;3.87;3.13;;;15.70;78.50;;;;;;4984397;28;20733;-85
2021/05/10 06:17:07;;;;;;;5.60;3.40;;;15.80;78.30;;;;;;5002428;28;20960;-82
2021/05/10 06:19:35;;;;;;;4.90;3.37;;;16.00;78.30;;;;;;4989841;28;20580;-83
2021/05/10 06:22:04;;;;;;;3.60;3.10;;;16.10;77.80;;;;;;4994490;28;20211;-81
2021/05/10 06:24:31;;;;;;;4.20;3.23;;;16.20;77.40;;;;;;4993873;28;20289;-83
2021/05/10 06:27:00;;;;;;;5.10;3.40;;;16.20;77.40;;;;;;4996527;28;20204;-83
2021/05/10 06:29:28;;;;;;;8.63;3.77;;;16.30;77.00;;;;;;4972333;28;20220;-85
2021/05/10 06:31:56;;;;;;;3.83;3.50;;;16.30;76.70;;;;;;4988047;28;20211;-83
2021/05/10 06:34:24;;;;;;;6.13;3.23;;;16.30;76.60;;;;;;4977856;28;20219;-83
2021/05/10 06:36:52;;;;;;;3.67;3.20;;;16.30;77.10;;;;;;4990443;28;20204;-83
2021/05/10 06:39:19;;;;;;;3.30;3.00;;;16.50;76.00;;;;;;4996413;28;20203;-83
2021/05/10 06:41:47;;;;;;;4.00;3.07;;;16.50;76.10;;;;;;4990259;28;20228;-78
2021/05/10 06:44:16;;;;;;;5.23;3.43;;;16.70;76.10;;;;;;4968082;28;20807;-78
2021/05/10 06:46:43;;;;;;;4.07;3.17;;;16.90;75.40;;;;;;4978306;28;20378;-80
2021/05/10 06:49:11;;;;;;;4.40;3.17;;;17.00;75.20;;;;;;4975065;28;21205;-79
2021/05/10 06:51:38;;;;;;;3.90;2.90;;;17.00;75.70;;;;;;4980332;28;20715;-79
2021/05/10 06:54:06;;;;;;;3.17;2.70;;;17.20;74.40;;;;;;4965026;28;20338;-80
2021/05/10 06:56:33;;;;;;;4.07;3.00;;;17.20;74.20;;;;;;4975124;28;20668;-78
2021/05/10 06:59:01;;;;;;;3.90;2.50;;;17.30;74.10;;;;;;4974949;28;20443;-79
2021/05/10 07:01:30;;;;;;;3.70;3.20;;;17.30;73.90;;;;;;4976573;28;20869;-80
2021/05/10 07:03:57;;;;;;;4.17;2.87;;;17.40;73.30;;;;;;4975674;28;20758;-78
2021/05/10 07:06:25;;;;;;;2.93;2.73;;;17.40;73.40;;;;;;4973640;28;20292;-79
2021/05/10 07:08:52;;;;;;;3.77;2.87;;;17.50;73.20;;;;;;4976468;28;20206;-77
2021/05/10 07:11:20;;;;;;;5.03;2.97;;;17.70;73.10;;;;;;4973343;28;20200;-78
2021/05/10 07:13:48;;;;;;;4.17;3.00;;;17.80;72.80;;;;;;4976886;28;20938;-80
2021/05/10 07:16:15;;;;;;;3.23;2.80;;;17.90;72.40;;;;;;4974470;28;20641;-82
2021/05/10 07:18:43;;;;;;;3.20;2.90;;;18.00;72.00;;;;;;4980116;28;20214;-79
2021/05/10 07:21:11;;;;;;;3.37;2.90;;;18.10;71.40;;;;;;4972682;28;20515;-79
2021/05/10 07:23:39;;;;;;;3.13;2.83;;;18.10;70.90;;;;;;4983984;28;20230;-79
2021/05/10 07:26:06;;;;;;;2.77;2.43;;;18.10;70.70;;;;;;4986257;28;21043;-80
2021/05/10 07:28:34;;;;;;;3.70;2.73;;;18.10;69.50;;;;;;4975767;28;20668;-80
2021/05/10 07:31:02;;;;;;;2.83;2.53;;;18.10;69.50;;;;;;4983165;28;20208;-79
2021/05/10 07:33:29;;;;;;;4.07;3.10;;;18.20;69.60;;;;;;4970859;28;20202;-79
2021/05/10 07:35:57;;;;;;;4.70;2.90;;;18.30;69.30;;;;;;4977239;28;20207;-79
2021/05/10 07:38:25;;;;;;;5.93;3.10;;;18.40;69.60;;;;;;4974319;28;20471;-79
2021/05/10 07:40:53;;;;;;;3.27;2.83;;;18.40;69.50;;;;;;4979252;28;20218;-79
2021/05/10 07:43:21;;;;;;;3.10;2.30;;;18.60;69.70;;;;;;4980888;28;20226;-80
2021/05/10 07:45:48;;;;;;;4.40;2.50;;;18.70;69.70;;;;;;4980658;28;20204;-80
2021/05/10 07:48:16;;;;;;;3.40;2.47;;;18.80;69.80;;;;;;4973623;28;20211;-81
2021/05/10 07:50:44;;;;;;;3.47;2.57;;;18.90;69.80;;;;;;4977843;28;20911;-79
2021/05/10 07:53:13;;;;;;;3.27;2.87;;;19.00;69.80;;;;;;4974189;28;20310;-80
2021/05/10 07:55:40;;;;;;;4.93;2.83;;;19.10;70.00;;;;;;4980268;28;20202;-79
2021/05/10 07:58:08;;;;;;;3.53;2.43;;;19.20;69.30;;;;;;4982721;28;20468;-79
2021/05/10 08:00:37;;;;;;;4.30;2.93;;;19.30;69.40;;;;;;4982709;28;20609;-79
2021/05/10 08:03:09;;;;;;;3.63;2.53;;;19.50;69.90;;;;;;4966949;28;20755;-80
2021/05/10 08:05:37;;;;;;;2.93;2.50;;;19.70;69.10;;;;;;4974117;28;21077;-80
2021/05/10 08:08:05;;;;;;;2.80;2.50;;;19.70;68.70;;;;;;4974641;28;20616;-80
2021/05/10 08:10:34;;;;;;;4.10;2.60;;;19.80;68.90;;;;;;4973390;28;20627;-78
2021/05/10 08:13:02;;;;;;;2.67;2.47;;;20.00;69.40;;;;;;4977884;28;20896;-77
2021/05/10 08:15:29;;;;;;;3.67;2.43;;;20.10;68.20;;;;;;4976326;28;20240;-78
2021/05/10 08:17:57;;;;;;;4.17;2.27;;;20.20;68.10;;;;;;4980731;28;20204;-79
2021/05/10 08:20:38;;;;;;;2.70;2.50;;;20.20;68.40;;;;;;4982051;28;20710;-79
2021/05/10 08:23:06;;;;;;;2.57;2.37;;;20.30;67.10;;;;;;4977917;28;20234;-79
2021/05/10 08:25:34;;;;;;;3.20;2.40;;;20.30;67.30;;;;;;4968382;28;20834;-78
2021/05/10 08:28:02;;;;;;;2.50;2.30;;;20.40;66.90;;;;;;4972083;28;21355;-79
2021/05/10 08:30:30;;;;;;;3.10;2.50;;;20.60;67.40;;;;;;4962355;28;20216;-80
2021/05/10 08:32:58;;;;;;;4.67;2.43;;;20.80;67.40;;;;;;4960697;28;20227;-79
2021/05/10 08:35:26;;;;;;;4.37;2.20;;;20.90;66.40;;;;;;4955453;28;20482;-80
2021/05/10 08:37:59;;;;;;;2.27;1.97;;;21.00;65.40;;;;;;4953680;28;20682;-79
2021/05/10 08:40:28;;;;;;;2.08;1.95;;;20.90;66.30;;;;;;4960300;28;20914;-80
2021/05/10 08:43:00;;;;;;;2.40;2.20;;;20.90;65.10;;;;;;4958660;28;20322;-78
2021/05/10 08:45:28;;;;;;;2.90;2.10;;;21.10;65.00;;;;;;4959661;28;20523;-79
2021/05/10 08:48:00;;;;;;;2.93;2.33;;;21.00;64.90;;;;;;4959249;28;20422;-78
2021/05/10 08:50:28;;;;;;;3.80;2.17;;;21.10;64.40;;;;;;4948839;28;20746;-79
2021/05/10 08:52:56;;;;;;;2.58;2.20;;;21.20;64.70;;;;;;4943636;28;20204;-79
2021/05/10 08:55:23;;;;;;;2.08;1.98;;;21.30;64.00;;;;;;4926538;28;20409;-78
2021/05/10 08:57:50;;;;;;;3.60;2.00;;;21.40;63.30;;;;;;4947079;28;20298;-78
2021/05/10 09:00:22;;;;;;;2.53;2.10;;;21.40;62.80;;;;;;4957752;28;20250;-78
2021/05/10 09:03:05;;;;;;;2.35;1.90;;;21.30;62.60;;;;;;4957013;28;20227;-77
2021/05/10 09:05:45;;;;;;;4.68;3.05;;;21.40;63.10;;;;;;4958964;28;21066;-80
2021/05/10 09:08:13;;;;;;;2.58;2.15;;;21.50;63.20;;;;;;4956165;28;20623;-79
2021/05/10 09:10:41;;;;;;;3.08;1.98;;;21.70;62.40;;;;;;4955245;28;21325;-78
2021/05/10 09:13:09;;;;;;;2.97;2.25;;;21.70;61.20;;;;;;4956222;28;20219;-77
2021/05/10 09:15:37;;;;;;;2.05;1.80;;;21.70;61.10;;;;;;4953735;28;20430;-79
2021/05/10 09:18:08;;;;;;;2.10;1.90;;;21.70;60.80;;;;;;4951423;28;20286;-81
2021/05/10 09:20:37;;;;;;;3.80;1.67;;;21.70;60.30;;;;;;4955864;28;20452;-79
2021/05/10 09:23:08;;;;;;;2.05;1.95;;;21.70;59.50;;;;;;4957519;28;20227;-77
2021/05/10 09:25:37;;;;;;;2.70;1.90;;;21.60;60.60;;;;;;4956018;28;20212;-80
2021/05/10 09:28:13;;;;;;;1.85;1.67;;;21.70;60.10;;;;;;4950681;28;20494;-77
2021/05/10 09:30:43;;;;;;;2.00;1.90;;;21.80;59.20;;;;;;4960233;28;20540;-80
2021/05/10 09:33:23;;;;;;;2.10;1.95;;;21.80;59.80;;;;;;4956037;28;20648;-79
2021/05/10 09:35:51;;;;;;;2.10;1.88;;;22.00;60.50;;;;;;4955342;28;20207;-79
2021/05/10 09:38:20;;;;;;;3.13;2.08;;;22.20;59.40;;;;;;4947827;28;20219;-78
2021/05/10 09:40:50;;;;;;;4.90;1.90;;;22.10;59.60;;;;;;4946181;28;20238;-79
2021/05/10 09:43:20;;;;;;;2.08;1.85;;;22.10;59.50;;;;;;4945438;28;20672;-79
2021/05/10 09:45:50;;;;;;;2.53;2.00;;;22.20;59.10;;;;;;4948913;28;20208;-81
2021/05/10 09:48:20;;;;;;;3.70;2.00;;;22.20;58.90;;;;;;4948072;28;20211;-79
2021/05/10 09:50:54;;;;;;;3.05;2.00;;;22.00;58.60;;;;;;4955303;28;20767;-79
2021/05/10 09:53:33;;;;;;;2.10;1.90;;;22.10;58.50;;;;;;4951517;28;20199;-78
2021/05/10 09:56:01;;;;;;;3.40;2.20;;;22.10;57.50;;;;;;4953992;28;20713;-77
2021/05/10 09:58:43;;;;;;;3.22;2.08;;;22.00;57.00;;;;;;4948813;28;20218;-80
2021/05/10 10:01:21;;;;;;;2.78;2.00;;;21.90;58.60;;;;;;4950551;28;20229;-77
2021/05/10 10:03:50;;;;;;;1.90;1.80;;;21.80;57.60;;;;;;4958037;28;20293;-77
2021/05/10 10:06:20;;;;;;;2.25;2.03;;;21.80;57.20;;;;;;4954681;28;20212;-79
2021/05/10 10:08:49;;;;;;;3.55;1.92;;;21.90;57.50;;;;;;4949266;28;20906;-79
2021/05/10 10:11:18;;;;;;;2.60;1.50;;;21.80;56.80;;;;;;4958859;28;20245;-79
2021/05/10 10:13:46;;;;;;;3.95;1.85;;;21.70;56.10;;;;;;4949829;28;20351;-81
2021/05/10 10:16:18;;;;;;;3.92;1.85;;;21.70;56.60;;;;;;4955396;28;20271;-80
2021/05/10 10:18:48;;;;;;;2.08;1.63;;;21.70;56.20;;;;;;4953012;28;20219;-79
2021/05/10 10:21:17;;;;;;;1.73;1.63;;;21.60;55.30;;;;;;4948767;28;20521;-78
2021/05/10 10:23:52;;;;;;;1.67;1.58;;;21.50;55.20;;;;;;4952405;28;21289;-80
2021/05/10 10:26:40;;;;;;;4.95;1.90;;;21.60;55.50;;;;;;4958476;28;20212;-80
2021/05/10 10:29:11;;;;;;;2.03;1.83;;;21.60;55.90;;;;;;4956943;28;20625;-78
2021/05/10 10:31:41;;;;;;;4.72;2.00;;;21.70;55.10;;;;;;4956321;28;20275;-80
2021/05/10 10:34:27;;;;;;;2.75;1.92;;;21.80;56.00;;;;;;4953934;28;20756;-77
2021/05/10 10:36:59;;;;;;;2.10;1.90;;;21.90;55.20;;;;;;4954209;28;20260;-79
2021/05/10 10:39:28;;;;;;;3.40;2.00;;;21.80;55.70;;;;;;4952774;28;20213;-80
2021/05/10 10:41:57;;;;;;;2.28;1.83;;;21.90;56.70;;;;;;4947405;28;20774;-76
2021/05/10 10:44:31;;;;;;;2.00;1.80;;;22.10;56.90;;;;;;4952815;28;20223;-79
2021/05/10 10:46:59;;;;;;;2.10;1.90;;;22.30;55.00;;;;;;4956932;28;21293;-80
2021/05/10 10:49:30;;;;;;;1.77;1.60;;;22.20;54.60;;;;;;4947699;28;20227;-79
2021/05/10 10:51:58;;;;;;;2.17;1.98;;;22.10;54.40;;;;;;4952701;28;20572;-77
2021/05/10 10:54:27;;;;;;;1.83;1.73;;;22.20;54.80;;;;;;4961931;28;20248;-80
2021/05/10 10:56:58;;;;;;;2.20;2.10;;;22.10;54.80;;;;;;4962160;28;20298;-80
2021/05/10 10:59:29;;;;;;;2.08;1.98;;;22.00;55.20;;;;;;4949900;28;20211;-80
2021/05/10 11:01:58;;;;;;;1.85;1.67;;;22.00;55.40;;;;;;4952659;28;20644;-80
2021/05/10 11:04:30;;;;;;;1.80;1.70;;;22.20;55.20;;;;;;4949742;28;20557;-81
2021/05/10 11:06:57;;;;;;;1.88;1.73;;;22.20;55.50;;;;;;4953339;28;20207;-79
2021/05/10 11:09:54;;;;;;;2.03;1.77;;;22.40;54.50;;;;;;4945876;28;20290;-79
2021/05/10 11:12:50;;;;;;;3.90;1.80;;;22.40;54.90;;;;;;4934108;28;20929;-80
2021/05/10 11:15:46;;;;;;;2.35;1.80;;;22.40;53.80;;;;;;4949635;28;20592;-79
2021/05/10 11:18:48;;;;;;;1.90;1.80;;;22.40;54.50;;;;;;4947772;28;20960;-80
2021/05/10 11:21:41;;;;;;;3.00;1.80;;;22.20;54.00;;;;;;4944176;28;20863;-78
2021/05/10 11:24:12;;;;;;;2.45;1.85;;;22.20;54.70;;;;;;4940716;28;21020;-76
2021/05/10 11:26:46;;;;;;;3.97;2.13;;;22.30;54.30;;;;;;4951040;28;20741;-77
2021/05/10 11:29:42;;;;;;;2.45;1.70;;;22.30;56.10;;;;;;4951709;28;20199;-78
2021/05/10 11:32:31;;;;;;;2.95;1.60;;;22.40;53.70;;;;;;4953151;28;20211;-81
2021/05/10 11:35:24;;;;;;;2.22;1.60;;;22.50;54.20;;;;;;4948338;28;20211;-77
2021/05/10 11:38:08;;;;;;;2.10;2.00;;;22.50;54.10;;;;;;4949741;28;20970;-77
2021/05/10 11:40:36;;;;;;;1.90;1.80;;;22.60;53.90;;;;;;4947916;28;20223;-79
2021/05/10 11:43:17;;;;;;;3.92;1.98;;;22.50;53.70;;;;;;4949227;28;20327;-78
2021/05/10 11:45:45;;;;;;;2.13;1.77;;;22.50;54.30;;;;;;4948379;28;20207;-79
2021/05/10 11:48:13;;;;;;;2.35;1.63;;;22.60;54.50;;;;;;4954697;28;20901;-80
2021/05/10 11:50:45;;;;;;;1.80;1.70;;;22.60;53.90;;;;;;4946611;28;20727;-79
2021/05/10 11:53:16;;;;;;;2.88;1.83;;;22.70;54.40;;;;;;4957571;28;21428;-79
2021/05/10 11:55:58;;;;;;;2.90;2.00;;;22.90;52.60;;;;;;4954295;28;21022;-79
2021/05/10 11:58:43;;;;;;;2.05;1.65;;;22.90;52.50;;;;;;4948320;28;20207;-81
2021/05/10 12:01:11;;;;;;;3.83;1.92;;;22.80;52.60;;;;;;4956371;28;20219;-79
2021/05/10 12:03:39;;;;;;;2.38;1.75;;;22.90;52.50;;;;;;4941175;28;20589;-79
2021/05/10 12:06:29;;;;;;;3.30;1.92;;;22.80;52.70;;;;;;4959680;28;20206;-76
2021/05/10 12:08:57;;;;;;;1.92;1.73;;;22.70;52.80;;;;;;4957923;28;20655;-80
2021/05/10 12:11:25;;;;;;;3.38;1.83;;;22.70;53.10;;;;;;4964213;28;20203;-79
2021/05/10 12:13:52;;;;;;;2.67;2.10;;;22.90;53.20;;;;;;4960468;28;20278;-80
2021/05/10 12:16:20;;;;;;;4.30;2.08;;;23.00;53.10;;;;;;4962292;28;20216;-76
2021/05/10 12:18:54;;;;;;;2.42;2.13;;;23.10;53.00;;;;;;4958437;28;20215;-78
2021/05/10 12:21:22;;;;;;;4.78;2.08;;;23.20;52.20;;;;;;4960732;28;20281;-79
2021/05/10 12:23:49;;;;;;;3.00;1.77;;;23.20;50.80;;;;;;4958605;28;20224;-80
2021/05/10 12:26:18;;;;;;;2.25;1.60;;;23.30;50.30;;;;;;4952716;28;20222;-80
2021/05/10 12:28:46;;;;;;;2.03;1.70;;;23.30;52.10;;;;;;4948982;28;20732;-78
2021/05/10 12:31:13;;;;;;;2.90;1.80;;;23.40;51.10;;;;;;4959290;28;20219;-78
2021/05/10 12:33:46;;;;;;;2.58;1.70;;;23.30;52.10;;;;;;4950873;28;20204;-81
2021/05/10 12:36:13;;;;;;;1.88;1.65;;;23.40;52.10;;;;;;4958199;28;20208;-78
2021/05/10 12:38:43;;;;;;;2.13;1.88;;;23.50;52.30;;;;;;4953906;28;20196;-80
2021/05/10 12:41:22;;;;;;;1.98;1.88;;;23.80;52.90;;;;;;4964719;28;20326;-82
2021/05/10 12:43:52;;;;;;;1.60;1.50;;;24.00;50.90;;;;;;4960962;28;20232;-81
2021/05/10 12:46:23;;;;;;;2.33;1.60;;;24.10;50.70;;;;;;4964286;28;20464;-81
2021/05/10 12:48:52;;;;;;;2.00;1.90;;;24.30;51.50;;;;;;4954022;28;20246;-80
2021/05/10 12:51:24;;;;;;;2.85;1.80;;;24.30;50.10;;;;;;4966356;28;20204;-79
2021/05/10 12:54:02;;;;;;;3.22;1.80;;;24.20;50.00;;;;;;4963800;28;20570;-79
2021/05/10 12:56:42;;;;;;;3.15;1.70;;;24.30;49.80;;;;;;4962017;28;21139;-78
2021/05/10 12:59:09;;;;;;;2.78;1.65;;;24.40;49.40;;;;;;4956789;28;20220;-80
2021/05/10 13:01:37;;;;;;;2.28;1.90;;;24.50;50.50;;;;;;4969490;28;20223;-80
2021/05/10 13:04:07;;;;;;;1.98;1.88;;;24.50;50.20;;;;;;4983353;28;20594;-77
2021/05/10 13:06:37;;;;;;;2.53;1.88;;;24.60;50.70;;;;;;4994113;28;20212;-80
2021/05/10 13:09:06;;;;;;;1.90;1.80;;;24.70;50.60;;;;;;4987197;28;20478;-78